Portada
METAR-TAF:

METAR-TAF

Aeropuertos :

Vamdrup

Kolding, Dinamarca

latitud: 55-26N, longitud: 009-20E, altitud: 44 m

Observación

El informe se hizo hace 16 minutos, a las 11:50 UTC
Viento 2 kt con dirección variable
Temperatura 18°C
Humedad 73%
Presión 1025 hPa
Visibilidad 10 km o más
sin nubes por debajo de 1500 m y sin presencia de cumulonimbus.

METAR: EKVD 191150Z VRB02KT CAVOK 18/13 Q1025

Hora: 14:06 (12:06 UTC)

Pronóstico

El informe se hizo hace 3 horas y 10 minutos, a las 08:56 UTC
Pronóstico válido del 19 a las 09 UTC al 19 a las 15 UTC
Viento 5 kt del norte
Visibilidad 10 km o más
sin nubes por debajo de 1500 m y sin presencia de cumulonimbus.

TAF: EKVD 190856Z 1909/1915 35005KT CAVOK

Observaciones y pronósticos meteorológicos de más de 4000 aeropuertos (mensajes METAR y TAF).

Los puntos amarillos y rojos representan las estaciones disponibles.

Ponga el ratón en el punto deseado para ver el nombre de la estación.

Haga clic para ver las observaciones y los pronósticos meteorológicos.

Para cambiar el mapa : haga clic en los botones verdes con una cruz de color negro para hacer un zoom, en el botón verde con un guión para alejar o en las flechas verdes para mapas adyacentes.


METAR-TAF: